sensor_id;sensor_type;location;lat;lon;timestamp;temperature;humidity
3528;DHT22;1778;47.966;7.854;2024-01-25T00:00:39;9.70;99.90
3528;DHT22;1778;47.966;7.854;2024-01-25T00:01:41;9.70;99.90
3528;DHT22;1778;47.966;7.854;2024-01-25T00:02:43;9.70;99.90
3528;DHT22;1778;47.966;7.854;2024-01-25T00:03:45;9.70;99.90
3528;DHT22;1778;47.966;7.854;2024-01-25T00:04:47;9.70;99.90
3528;DHT22;1778;47.966;7.854;2024-01-25T00:05:48;9.80;99.90
3528;DHT22;1778;47.966;7.854;2024-01-25T00:06:50;9.80;99.90
3528;DHT22;1778;47.966;7.854;2024-01-25T00:07:52;9.80;99.90
3528;DHT22;1778;47.966;7.854;2024-01-25T00:08:54;9.70;99.90
3528;DHT22;1778;47.966;7.854;2024-01-25T00:09:55;9.70;99.90
3528;DHT22;1778;47.966;7.854;2024-01-25T00:10:57;9.70;99.90
3528;DHT22;1778;47.966;7.854;2024-01-25T00:11:58;9.70;99.90
3528;DHT22;1778;47.966;7.854;2024-01-25T00:12:59;9.70;99.90
3528;DHT22;1778;47.966;7.854;2024-01-25T00:14:01;9.70;99.90
3528;DHT22;1778;47.966;7.854;2024-01-25T00:15:03;9.70;99.90
3528;DHT22;1778;47.966;7.854;2024-01-25T00:16:05;9.70;99.90
3528;DHT22;1778;47.966;7.854;2024-01-25T00:17:09;9.70;99.90
3528;DHT22;1778;47.966;7.854;2024-01-25T00:18:10;9.70;99.90
3528;DHT22;1778;47.966;7.854;2024-01-25T00:19:12;9.70;99.90
3528;DHT22;1778;47.966;7.854;2024-01-25T00:20:13;9.70;99.90
3528;DHT22;1778;47.966;7.854;2024-01-25T00:21:15;9.70;99.90
3528;DHT22;1778;47.966;7.854;2024-01-25T00:22:17;9.70;99.90
3528;DHT22;1778;47.966;7.854;2024-01-25T00:23:18;9.70;99.90
3528;DHT22;1778;47.966;7.854;2024-01-25T00:24:20;9.70;99.90
3528;DHT22;1778;47.966;7.854;2024-01-25T00:25:22;9.70;99.90
3528;DHT22;1778;47.966;7.854;2024-01-25T00:26:23;9.70;99.90
3528;DHT22;1778;47.966;7.854;2024-01-25T00:27:28;9.70;99.90
3528;DHT22;1778;47.966;7.854;2024-01-25T00:28:29;9.70;99.90
3528;DHT22;1778;47.966;7.854;2024-01-25T00:29:31;9.70;99.90
3528;DHT22;1778;47.966;7.854;2024-01-25T00:30:32;9.80;99.90
3528;DHT22;1778;47.966;7.854;2024-01-25T00:31:34;9.70;99.90
3528;DHT22;1778;47.966;7.854;2024-01-25T00:32:35;9.70;99.90
3528;DHT22;1778;47.966;7.854;2024-01-25T00:33:37;9.70;99.90
3528;DHT22;1778;47.966;7.854;2024-01-25T00:34:39;9.70;99.90
3528;DHT22;1778;47.966;7.854;2024-01-25T00:35:40;9.70;99.90
3528;DHT22;1778;47.966;7.854;2024-01-25T00:36:42;9.70;99.90
3528;DHT22;1778;47.966;7.854;2024-01-25T00:37:44;9.70;99.90
3528;DHT22;1778;47.966;7.854;2024-01-25T00:38:46;9.70;99.90
3528;DHT22;1778;47.966;7.854;2024-01-25T00:39:48;9.60;99.90
3528;DHT22;1778;47.966;7.854;2024-01-25T00:40:51;9.60;99.90
3528;DHT22;1778;47.966;7.854;2024-01-25T00:42:04;9.60;99.90
3528;DHT22;1778;47.966;7.854;2024-01-25T00:43:07;9.60;99.90
3528;DHT22;1778;47.966;7.854;2024-01-25T00:44:09;9.70;99.90
3528;DHT22;1778;47.966;7.854;2024-01-25T00:45:11;9.70;99.90
3528;DHT22;1778;47.966;7.854;2024-01-25T00:46:14;9.70;99.90
3528;DHT22;1778;47.966;7.854;2024-01-25T00:47:17;9.70;99.90
3528;DHT22;1778;47.966;7.854;2024-01-25T00:48:18;9.80;99.90
3528;DHT22;1778;47.966;7.854;2024-01-25T00:49:21;9.70;99.90
3528;DHT22;1778;47.966;7.854;2024-01-25T00:50:23;9.70;99.90
3528;DHT22;1778;47.966;7.854;2024-01-25T00:51:27;9.70;99.90
3528;DHT22;1778;47.966;7.854;2024-01-25T00:52:29;9.70;99.90
3528;DHT22;1778;47.966;7.854;2024-01-25T00:53:31;9.70;99.90
3528;DHT22;1778;47.966;7.854;2024-01-25T00:54:34;9.70;99.90
3528;DHT22;1778;47.966;7.854;2024-01-25T00:55:36;9.70;99.90
3528;DHT22;1778;47.966;7.854;2024-01-25T00:56:38;9.80;99.90
3528;DHT22;1778;47.966;7.854;2024-01-25T00:57:39;9.80;99.90
3528;DHT22;1778;47.966;7.854;2024-01-25T00:58:41;9.80;99.90
3528;DHT22;1778;47.966;7.854;2024-01-25T00:59:43;9.80;99.90
3528;DHT22;1778;47.966;7.854;2024-01-25T01:00:44;9.70;99.90
3528;DHT22;1778;47.966;7.854;2024-01-25T01:01:47;9.80;99.90
3528;DHT22;1778;47.966;7.854;2024-01-25T01:02:49;9.80;99.90
3528;DHT22;1778;47.966;7.854;2024-01-25T01:03:51;9.80;99.90
3528;DHT22;1778;47.966;7.854;2024-01-25T01:04:54;9.70;99.90
3528;DHT22;1778;47.966;7.854;2024-01-25T01:05:57;9.70;99.90
3528;DHT22;1778;47.966;7.854;2024-01-25T01:06:59;9.70;99.90
3528;DHT22;1778;47.966;7.854;2024-01-25T01:08:01;9.70;99.90
3528;DHT22;1778;47.966;7.854;2024-01-25T01:09:03;9.70;99.90
3528;DHT22;1778;47.966;7.854;2024-01-25T01:10:06;9.70;99.90
3528;DHT22;1778;47.966;7.854;2024-01-25T01:11:07;9.70;99.90
3528;DHT22;1778;47.966;7.854;2024-01-25T01:12:09;9.80;99.90
3528;DHT22;1778;47.966;7.854;2024-01-25T01:13:10;9.80;99.90
3528;DHT22;1778;47.966;7.854;2024-01-25T01:14:12;9.80;99.90
3528;DHT22;1778;47.966;7.854;2024-01-25T01:15:14;9.80;99.90
3528;DHT22;1778;47.966;7.854;2024-01-25T01:16:15;9.80;99.90
3528;DHT22;1778;47.966;7.854;2024-01-25T01:17:17;9.80;99.90
3528;DHT22;1778;47.966;7.854;2024-01-25T01:18:19;9.80;99.90
3528;DHT22;1778;47.966;7.854;2024-01-25T01:19:21;9.80;99.90
3528;DHT22;1778;47.966;7.854;2024-01-25T01:20:23;9.70;99.90
3528;DHT22;1778;47.966;7.854;2024-01-25T01:21:25;9.70;99.90
3528;DHT22;1778;47.966;7.854;2024-01-25T01:22:26;9.70;99.90
3528;DHT22;1778;47.966;7.854;2024-01-25T01:23:28;9.80;99.90
3528;DHT22;1778;47.966;7.854;2024-01-25T01:24:29;9.80;99.90
3528;DHT22;1778;47.966;7.854;2024-01-25T01:25:32;9.80;99.90
3528;DHT22;1778;47.966;7.854;2024-01-25T01:26:35;9.80;99.90
3528;DHT22;1778;47.966;7.854;2024-01-25T01:27:36;9.80;99.90
3528;DHT22;1778;47.966;7.854;2024-01-25T01:28:38;9.80;99.90
3528;DHT22;1778;47.966;7.854;2024-01-25T01:29:39;9.80;99.90
3528;DHT22;1778;47.966;7.854;2024-01-25T01:30:42;9.80;99.90
3528;DHT22;1778;47.966;7.854;2024-01-25T01:31:44;9.90;99.90
3528;DHT22;1778;47.966;7.854;2024-01-25T01:32:45;9.90;99.90
3528;DHT22;1778;47.966;7.854;2024-01-25T01:33:47;9.90;99.90
3528;DHT22;1778;47.966;7.854;2024-01-25T01:34:49;9.80;99.90
3528;DHT22;1778;47.966;7.854;2024-01-25T01:35:50;9.80;99.90
3528;DHT22;1778;47.966;7.854;2024-01-25T01:36:52;9.80;99.90
3528;DHT22;1778;47.966;7.854;2024-01-25T01:37:53;9.80;99.90
3528;DHT22;1778;47.966;7.854;2024-01-25T01:38:55;9.80;99.90
3528;DHT22;1778;47.966;7.854;2024-01-25T01:39:56;9.70;99.90
3528;DHT22;1778;47.966;7.854;2024-01-25T01:40:59;9.70;99.90
3528;DHT22;1778;47.966;7.854;2024-01-25T01:42:01;9.70;99.90
3528;DHT22;1778;47.966;7.854;2024-01-25T01:43:02;9.70;99.90
3528;DHT22;1778;47.966;7.854;2024-01-25T01:44:04;9.70;99.90
3528;DHT22;1778;47.966;7.854;2024-01-25T01:45:06;9.70;99.90
3528;DHT22;1778;47.966;7.854;2024-01-25T01:46:33;9.70;99.90
3528;DHT22;1778;47.966;7.854;2024-01-25T01:47:36;9.80;99.90
3528;DHT22;1778;47.966;7.854;2024-01-25T01:48:40;9.70;99.90
3528;DHT22;1778;47.966;7.854;2024-01-25T01:49:42;9.70;99.90
3528;DHT22;1778;47.966;7.854;2024-01-25T01:50:45;9.70;99.90
3528;DHT22;1778;47.966;7.854;2024-01-25T01:51:47;9.70;99.90
3528;DHT22;1778;47.966;7.854;2024-01-25T01:52:50;9.70;99.90
3528;DHT22;1778;47.966;7.854;2024-01-25T01:53:53;9.70;99.90
3528;DHT22;1778;47.966;7.854;2024-01-25T01:54:55;9.70;99.90
3528;DHT22;1778;47.966;7.854;2024-01-25T01:55:57;9.70;99.90
3528;DHT22;1778;47.966;7.854;2024-01-25T01:56:59;9.70;99.90
3528;DHT22;1778;47.966;7.854;2024-01-25T01:58:01;9.70;99.90
3528;DHT22;1778;47.966;7.854;2024-01-25T01:59:05;9.70;99.90
3528;DHT22;1778;47.966;7.854;2024-01-25T02:00:09;9.70;99.90
3528;DHT22;1778;47.966;7.854;2024-01-25T02:01:13;9.70;99.90
3528;DHT22;1778;47.966;7.854;2024-01-25T02:02:15;9.70;99.90
3528;DHT22;1778;47.966;7.854;2024-01-25T02:03:16;9.70;99.90
3528;DHT22;1778;47.966;7.854;2024-01-25T02:04:18;9.70;99.90
3528;DHT22;1778;47.966;7.854;2024-01-25T02:05:20;9.70;99.90
3528;DHT22;1778;47.966;7.854;2024-01-25T02:06:22;9.70;99.90
3528;DHT22;1778;47.966;7.854;2024-01-25T02:07:24;9.70;99.90
3528;DHT22;1778;47.966;7.854;2024-01-25T02:08:26;9.70;99.90
3528;DHT22;1778;47.966;7.854;2024-01-25T02:09:28;9.70;99.90
3528;DHT22;1778;47.966;7.854;2024-01-25T02:10:30;9.70;99.90
3528;DHT22;1778;47.966;7.854;2024-01-25T02:11:31;9.70;99.90
3528;DHT22;1778;47.966;7.854;2024-01-25T02:12:33;9.80;99.90
3528;DHT22;1778;47.966;7.854;2024-01-25T02:13:35;9.80;99.90
3528;DHT22;1778;47.966;7.854;2024-01-25T02:14:36;9.80;99.90
3528;DHT22;1778;47.966;7.854;2024-01-25T02:15:38;9.70;99.90
3528;DHT22;1778;47.966;7.854;2024-01-25T02:16:40;9.70;99.90
3528;DHT22;1778;47.966;7.854;2024-01-25T02:17:45;9.70;99.90
3528;DHT22;1778;47.966;7.854;2024-01-25T02:18:47;9.70;99.90
3528;DHT22;1778;47.966;7.854;2024-01-25T02:19:52;9.80;99.90
3528;DHT22;1778;47.966;7.854;2024-01-25T02:20:54;9.70;99.90
3528;DHT22;1778;47.966;7.854;2024-01-25T02:21:57;9.80;99.90
3528;DHT22;1778;47.966;7.854;2024-01-25T02:22:59;9.80;99.90
3528;DHT22;1778;47.966;7.854;2024-01-25T02:24:01;9.80;99.90
3528;DHT22;1778;47.966;7.854;2024-01-25T02:25:02;9.70;99.90
3528;DHT22;1778;47.966;7.854;2024-01-25T02:26:04;9.70;99.90
3528;DHT22;1778;47.966;7.854;2024-01-25T02:27:06;9.70;99.90
3528;DHT22;1778;47.966;7.854;2024-01-25T02:28:08;9.80;99.90
3528;DHT22;1778;47.966;7.854;2024-01-25T02:29:09;9.80;99.90
3528;DHT22;1778;47.966;7.854;2024-01-25T02:30:11;9.80;99.90
3528;DHT22;1778;47.966;7.854;2024-01-25T02:31:13;9.80;99.90
3528;DHT22;1778;47.966;7.854;2024-01-25T02:32:15;9.70;99.90
3528;DHT22;1778;47.966;7.854;2024-01-25T02:33:16;9.70;99.90
3528;DHT22;1778;47.966;7.854;2024-01-25T02:34:18;9.80;99.90
3528;DHT22;1778;47.966;7.854;2024-01-25T02:35:20;9.70;99.90
3528;DHT22;1778;47.966;7.854;2024-01-25T02:36:22;9.70;99.90
3528;DHT22;1778;47.966;7.854;2024-01-25T02:37:24;9.70;99.90
3528;DHT22;1778;47.966;7.854;2024-01-25T02:38:25;9.70;99.90
3528;DHT22;1778;47.966;7.854;2024-01-25T02:39:27;9.70;99.90
3528;DHT22;1778;47.966;7.854;2024-01-25T02:40:28;9.70;99.90
3528;DHT22;1778;47.966;7.854;2024-01-25T02:41:30;9.70;99.90
3528;DHT22;1778;47.966;7.854;2024-01-25T02:42:32;9.70;99.90
3528;DHT22;1778;47.966;7.854;2024-01-25T02:43:33;9.80;99.90
3528;DHT22;1778;47.966;7.854;2024-01-25T02:44:35;9.80;99.90
3528;DHT22;1778;47.966;7.854;2024-01-25T02:45:37;9.70;99.90
3528;DHT22;1778;47.966;7.854;2024-01-25T02:46:38;9.70;99.90
3528;DHT22;1778;47.966;7.854;2024-01-25T02:47:40;9.70;99.90
3528;DHT22;1778;47.966;7.854;2024-01-25T02:48:41;9.70;99.90
3528;DHT22;1778;47.966;7.854;2024-01-25T02:49:43;9.70;99.90
3528;DHT22;1778;47.966;7.854;2024-01-25T02:50:45;9.70;99.90
3528;DHT22;1778;47.966;7.854;2024-01-25T02:51:47;9.70;99.90
3528;DHT22;1778;47.966;7.854;2024-01-25T02:52:48;9.70;99.90
3528;DHT22;1778;47.966;7.854;2024-01-25T02:53:50;9.70;99.90
3528;DHT22;1778;47.966;7.854;2024-01-25T02:54:52;9.70;99.90
3528;DHT22;1778;47.966;7.854;2024-01-25T02:55:53;9.60;99.90
3528;DHT22;1778;47.966;7.854;2024-01-25T02:56:55;9.60;99.90
3528;DHT22;1778;47.966;7.854;2024-01-25T02:57:56;9.60;99.90
3528;DHT22;1778;47.966;7.854;2024-01-25T02:58:59;9.60;99.90
3528;DHT22;1778;47.966;7.854;2024-01-25T03:00:00;9.60;99.90
3528;DHT22;1778;47.966;7.854;2024-01-25T03:01:02;9.60;99.90
3528;DHT22;1778;47.966;7.854;2024-01-25T03:02:04;9.60;99.90
3528;DHT22;1778;47.966;7.854;2024-01-25T03:03:06;9.60;99.90
3528;DHT22;1778;47.966;7.854;2024-01-25T03:04:08;9.60;99.90
3528;DHT22;1778;47.966;7.854;2024-01-25T03:05:09;9.60;99.90
3528;DHT22;1778;47.966;7.854;2024-01-25T03:06:11;9.60;99.90
3528;DHT22;1778;47.966;7.854;2024-01-25T03:07:12;9.60;99.90
3528;DHT22;1778;47.966;7.854;2024-01-25T03:08:14;9.60;99.90
3528;DHT22;1778;47.966;7.854;2024-01-25T03:09:15;9.60;99.90
3528;DHT22;1778;47.966;7.854;2024-01-25T03:10:17;9.60;99.90
3528;DHT22;1778;47.966;7.854;2024-01-25T03:11:18;9.60;99.90
3528;DHT22;1778;47.966;7.854;2024-01-25T03:12:21;9.60;99.90
3528;DHT22;1778;47.966;7.854;2024-01-25T03:13:22;9.60;99.90
3528;DHT22;1778;47.966;7.854;2024-01-25T03:14:23;9.60;99.90
3528;DHT22;1778;47.966;7.854;2024-01-25T03:15:25;9.70;99.90
3528;DHT22;1778;47.966;7.854;2024-01-25T03:16:27;9.70;99.90
3528;DHT22;1778;47.966;7.854;2024-01-25T03:17:28;9.80;99.90
3528;DHT22;1778;47.966;7.854;2024-01-25T03:18:30;9.70;99.90
3528;DHT22;1778;47.966;7.854;2024-01-25T03:19:31;9.70;99.90
3528;DHT22;1778;47.966;7.854;2024-01-25T03:20:33;9.70;99.90
3528;DHT22;1778;47.966;7.854;2024-01-25T03:21:35;9.70;99.90
3528;DHT22;1778;47.966;7.854;2024-01-25T03:22:37;9.70;99.90
3528;DHT22;1778;47.966;7.854;2024-01-25T03:23:39;9.60;99.90
3528;DHT22;1778;47.966;7.854;2024-01-25T03:24:40;9.70;99.90
3528;DHT22;1778;47.966;7.854;2024-01-25T03:25:42;9.70;99.90
3528;DHT22;1778;47.966;7.854;2024-01-25T03:26:43;9.70;99.90
3528;DHT22;1778;47.966;7.854;2024-01-25T03:27:45;9.70;99.90
3528;DHT22;1778;47.966;7.854;2024-01-25T03:28:46;9.70;99.90
3528;DHT22;1778;47.966;7.854;2024-01-25T03:29:48;9.70;99.90
3528;DHT22;1778;47.966;7.854;2024-01-25T03:30:49;9.70;99.90
3528;DHT22;1778;47.966;7.854;2024-01-25T03:31:51;9.70;99.90
3528;DHT22;1778;47.966;7.854;2024-01-25T03:32:53;9.70;99.90
3528;DHT22;1778;47.966;7.854;2024-01-25T03:33:54;9.70;99.90
3528;DHT22;1778;47.966;7.854;2024-01-25T03:34:56;9.70;99.90
3528;DHT22;1778;47.966;7.854;2024-01-25T03:36:02;9.60;99.90
3528;DHT22;1778;47.966;7.854;2024-01-25T03:37:04;9.60;99.90
3528;DHT22;1778;47.966;7.854;2024-01-25T03:38:06;9.70;99.90
3528;DHT22;1778;47.966;7.854;2024-01-25T03:39:08;9.60;99.90
3528;DHT22;1778;47.966;7.854;2024-01-25T03:40:10;9.60;99.90
3528;DHT22;1778;47.966;7.854;2024-01-25T03:41:13;9.60;99.90
3528;DHT22;1778;47.966;7.854;2024-01-25T03:42:15;9.60;99.90
3528;DHT22;1778;47.966;7.854;2024-01-25T03:43:16;9.60;99.90
3528;DHT22;1778;47.966;7.854;2024-01-25T03:44:25;9.60;99.90
3528;DHT22;1778;47.966;7.854;2024-01-25T03:45:26;9.60;99.90
3528;DHT22;1778;47.966;7.854;2024-01-25T03:46:28;9.60;99.90
3528;DHT22;1778;47.966;7.854;2024-01-25T03:47:29;9.60;99.90
3528;DHT22;1778;47.966;7.854;2024-01-25T03:48:31;9.70;99.90
3528;DHT22;1778;47.966;7.854;2024-01-25T03:49:33;9.60;99.90
3528;DHT22;1778;47.966;7.854;2024-01-25T03:50:35;9.60;99.90
3528;DHT22;1778;47.966;7.854;2024-01-25T03:51:36;9.60;99.90
3528;DHT22;1778;47.966;7.854;2024-01-25T03:52:38;9.60;99.90
3528;DHT22;1778;47.966;7.854;2024-01-25T03:53:39;9.60;99.90
3528;DHT22;1778;47.966;7.854;2024-01-25T03:54:44;9.60;99.90
3528;DHT22;1778;47.966;7.854;2024-01-25T03:55:45;9.60;99.90
3528;DHT22;1778;47.966;7.854;2024-01-25T03:56:47;9.60;99.90
3528;DHT22;1778;47.966;7.854;2024-01-25T03:57:48;9.60;99.90
3528;DHT22;1778;47.966;7.854;2024-01-25T03:58:51;9.60;99.90
3528;DHT22;1778;47.966;7.854;2024-01-25T03:59:52;9.60;99.90
3528;DHT22;1778;47.966;7.854;2024-01-25T04:00:54;9.60;99.90
3528;DHT22;1778;47.966;7.854;2024-01-25T04:01:56;9.60;99.90
3528;DHT22;1778;47.966;7.854;2024-01-25T04:02:58;9.60;99.90
3528;DHT22;1778;47.966;7.854;2024-01-25T04:04:00;9.60;99.90
3528;DHT22;1778;47.966;7.854;2024-01-25T04:05:02;9.60;99.90
3528;DHT22;1778;47.966;7.854;2024-01-25T04:06:04;9.60;99.90
3528;DHT22;1778;47.966;7.854;2024-01-25T04:07:06;9.60;99.90
3528;DHT22;1778;47.966;7.854;2024-01-25T04:08:07;9.60;99.90
3528;DHT22;1778;47.966;7.854;2024-01-25T04:09:11;9.60;99.90
3528;DHT22;1778;47.966;7.854;2024-01-25T04:10:13;9.60;99.90
3528;DHT22;1778;47.966;7.854;2024-01-25T04:11:14;9.60;99.90
3528;DHT22;1778;47.966;7.854;2024-01-25T04:12:17;9.60;99.90
3528;DHT22;1778;47.966;7.854;2024-01-25T04:13:18;9.60;99.90
3528;DHT22;1778;47.966;7.854;2024-01-25T04:14:20;9.60;99.90
3528;DHT22;1778;47.966;7.854;2024-01-25T04:15:22;9.60;99.90
3528;DHT22;1778;47.966;7.854;2024-01-25T04:16:24;9.70;99.90
3528;DHT22;1778;47.966;7.854;2024-01-25T04:17:26;9.70;99.90
3528;DHT22;1778;47.966;7.854;2024-01-25T04:18:28;9.70;99.90
3528;DHT22;1778;47.966;7.854;2024-01-25T04:19:30;9.70;99.90
3528;DHT22;1778;47.966;7.854;2024-01-25T04:20:31;9.60;99.90
3528;DHT22;1778;47.966;7.854;2024-01-25T04:21:37;9.70;99.90
3528;DHT22;1778;47.966;7.854;2024-01-25T04:22:38;9.60;99.90
3528;DHT22;1778;47.966;7.854;2024-01-25T04:23:40;9.60;99.90
3528;DHT22;1778;47.966;7.854;2024-01-25T04:24:42;9.60;99.90
3528;DHT22;1778;47.966;7.854;2024-01-25T04:25:45;9.50;99.90
3528;DHT22;1778;47.966;7.854;2024-01-25T04:26:46;9.40;99.90
3528;DHT22;1778;47.966;7.854;2024-01-25T04:27:48;9.40;99.90
3528;DHT22;1778;47.966;7.854;2024-01-25T04:28:50;9.40;99.90
3528;DHT22;1778;47.966;7.854;2024-01-25T04:29:52;9.30;99.90
3528;DHT22;1778;47.966;7.854;2024-01-25T04:30:53;9.40;99.90
3528;DHT22;1778;47.966;7.854;2024-01-25T04:31:55;9.30;99.90
3528;DHT22;1778;47.966;7.854;2024-01-25T04:32:56;9.30;99.90
3528;DHT22;1778;47.966;7.854;2024-01-25T04:33:58;9.40;99.90
3528;DHT22;1778;47.966;7.854;2024-01-25T04:35:00;9.40;99.90
3528;DHT22;1778;47.966;7.854;2024-01-25T04:36:02;9.40;99.90
3528;DHT22;1778;47.966;7.854;2024-01-25T04:37:04;9.40;99.90
3528;DHT22;1778;47.966;7.854;2024-01-25T04:38:06;9.40;99.90
3528;DHT22;1778;47.966;7.854;2024-01-25T04:39:08;9.40;99.90
3528;DHT22;1778;47.966;7.854;2024-01-25T04:40:11;9.40;99.90
3528;DHT22;1778;47.966;7.854;2024-01-25T04:41:12;9.40;99.90
3528;DHT22;1778;47.966;7.854;2024-01-25T04:42:14;9.40;99.90
3528;DHT22;1778;47.966;7.854;2024-01-25T04:43:19;9.40;99.90
3528;DHT22;1778;47.966;7.854;2024-01-25T04:44:20;9.40;99.90
3528;DHT22;1778;47.966;7.854;2024-01-25T04:45:22;9.40;99.90
3528;DHT22;1778;47.966;7.854;2024-01-25T04:46:23;9.40;99.90
3528;DHT22;1778;47.966;7.854;2024-01-25T04:47:25;9.30;99.90
3528;DHT22;1778;47.966;7.854;2024-01-25T04:48:26;9.30;99.90
3528;DHT22;1778;47.966;7.854;2024-01-25T04:49:28;9.20;99.90
3528;DHT22;1778;47.966;7.854;2024-01-25T04:50:32;9.20;99.90
3528;DHT22;1778;47.966;7.854;2024-01-25T04:51:34;9.20;99.90
3528;DHT22;1778;47.966;7.854;2024-01-25T04:52:35;9.20;99.90
3528;DHT22;1778;47.966;7.854;2024-01-25T04:53:37;9.20;99.90
3528;DHT22;1778;47.966;7.854;2024-01-25T04:54:38;9.20;99.90
3528;DHT22;1778;47.966;7.854;2024-01-25T04:55:40;9.20;99.90
3528;DHT22;1778;47.966;7.854;2024-01-25T04:56:42;9.20;99.90
3528;DHT22;1778;47.966;7.854;2024-01-25T04:57:43;9.10;99.90
3528;DHT22;1778;47.966;7.854;2024-01-25T04:58:45;9.10;99.90
3528;DHT22;1778;47.966;7.854;2024-01-25T04:59:46;9.10;99.90
3528;DHT22;1778;47.966;7.854;2024-01-25T05:00:48;9.10;99.90
3528;DHT22;1778;47.966;7.854;2024-01-25T05:01:52;9.10;99.90
3528;DHT22;1778;47.966;7.854;2024-01-25T05:02:55;9.10;99.90
3528;DHT22;1778;47.966;7.854;2024-01-25T05:03:57;9.10;99.90
3528;DHT22;1778;47.966;7.854;2024-01-25T05:04:58;9.10;99.90
3528;DHT22;1778;47.966;7.854;2024-01-25T05:06:00;9.00;99.90
3528;DHT22;1778;47.966;7.854;2024-01-25T05:07:02;9.00;99.90
3528;DHT22;1778;47.966;7.854;2024-01-25T05:08:04;9.00;99.90
3528;DHT22;1778;47.966;7.854;2024-01-25T05:09:05;9.00;99.90
3528;DHT22;1778;47.966;7.854;2024-01-25T05:10:09;9.00;99.90
3528;DHT22;1778;47.966;7.854;2024-01-25T05:11:11;9.10;99.90
3528;DHT22;1778;47.966;7.854;2024-01-25T05:12:12;9.00;99.90
3528;DHT22;1778;47.966;7.854;2024-01-25T05:13:14;9.00;99.90
3528;DHT22;1778;47.966;7.854;2024-01-25T05:14:16;8.90;99.90
3528;DHT22;1778;47.966;7.854;2024-01-25T05:15:17;9.00;99.90
3528;DHT22;1778;47.966;7.854;2024-01-25T05:16:18;9.00;99.90
3528;DHT22;1778;47.966;7.854;2024-01-25T05:17:20;9.00;99.90
3528;DHT22;1778;47.966;7.854;2024-01-25T05:18:21;9.00;99.90
3528;DHT22;1778;47.966;7.854;2024-01-25T05:19:23;9.00;99.90
3528;DHT22;1778;47.966;7.854;2024-01-25T05:20:26;9.00;99.90
3528;DHT22;1778;47.966;7.854;2024-01-25T05:21:33;9.00;99.90
3528;DHT22;1778;47.966;7.854;2024-01-25T05:22:35;9.00;99.90
3528;DHT22;1778;47.966;7.854;2024-01-25T05:23:42;9.00;99.90
3528;DHT22;1778;47.966;7.854;2024-01-25T05:24:43;9.00;99.90
3528;DHT22;1778;47.966;7.854;2024-01-25T05:25:47;8.90;99.90
3528;DHT22;1778;47.966;7.854;2024-01-25T05:26:49;8.80;99.90
3528;DHT22;1778;47.966;7.854;2024-01-25T05:27:50;8.80;99.90
3528;DHT22;1778;47.966;7.854;2024-01-25T05:28:52;8.90;99.90
3528;DHT22;1778;47.966;7.854;2024-01-25T05:29:54;8.90;99.90
3528;DHT22;1778;47.966;7.854;2024-01-25T05:30:55;8.90;99.90
3528;DHT22;1778;47.966;7.854;2024-01-25T05:31:56;8.90;99.90
3528;DHT22;1778;47.966;7.854;2024-01-25T05:32:58;8.90;99.90
3528;DHT22;1778;47.966;7.854;2024-01-25T05:34:00;8.90;99.90
3528;DHT22;1778;47.966;7.854;2024-01-25T05:35:02;8.90;99.90
3528;DHT22;1778;47.966;7.854;2024-01-25T05:36:05;8.90;99.90
3528;DHT22;1778;47.966;7.854;2024-01-25T05:37:07;8.80;99.90
3528;DHT22;1778;47.966;7.854;2024-01-25T05:38:09;8.80;99.90
3528;DHT22;1778;47.966;7.854;2024-01-25T05:39:13;8.80;99.90
3528;DHT22;1778;47.966;7.854;2024-01-25T05:40:14;8.80;99.90
3528;DHT22;1778;47.966;7.854;2024-01-25T05:41:16;8.80;99.90
3528;DHT22;1778;47.966;7.854;2024-01-25T05:42:17;8.90;99.90
3528;DHT22;1778;47.966;7.854;2024-01-25T05:43:19;8.90;99.90
3528;DHT22;1778;47.966;7.854;2024-01-25T05:44:21;8.90;99.90
3528;DHT22;1778;47.966;7.854;2024-01-25T05:45:22;8.80;99.90
3528;DHT22;1778;47.966;7.854;2024-01-25T05:46:25;8.90;99.90
3528;DHT22;1778;47.966;7.854;2024-01-25T05:47:27;8.80;99.90
3528;DHT22;1778;47.966;7.854;2024-01-25T05:48:29;8.80;99.90
3528;DHT22;1778;47.966;7.854;2024-01-25T05:49:30;8.80;99.90
3528;DHT22;1778;47.966;7.854;2024-01-25T05:50:32;8.90;99.90
3528;DHT22;1778;47.966;7.854;2024-01-25T05:51:34;8.90;99.90
3528;DHT22;1778;47.966;7.854;2024-01-25T05:52:37;8.90;99.90
3528;DHT22;1778;47.966;7.854;2024-01-25T05:53:39;8.90;99.90
3528;DHT22;1778;47.966;7.854;2024-01-25T05:54:40;8.90;99.90
3528;DHT22;1778;47.966;7.854;2024-01-25T05:55:42;9.00;99.90
3528;DHT22;1778;47.966;7.854;2024-01-25T05:56:44;9.00;99.90
3528;DHT22;1778;47.966;7.854;2024-01-25T05:57:45;9.00;99.90
3528;DHT22;1778;47.966;7.854;2024-01-25T05:58:47;9.00;99.90
3528;DHT22;1778;47.966;7.854;2024-01-25T05:59:48;9.00;99.90
3528;DHT22;1778;47.966;7.854;2024-01-25T06:00:50;8.90;99.90
3528;DHT22;1778;47.966;7.854;2024-01-25T06:01:52;8.90;99.90
3528;DHT22;1778;47.966;7.854;2024-01-25T06:02:54;8.90;99.90
3528;DHT22;1778;47.966;7.854;2024-01-25T06:03:55;8.90;99.90
3528;DHT22;1778;47.966;7.854;2024-01-25T06:04:57;8.80;99.90
3528;DHT22;1778;47.966;7.854;2024-01-25T06:06:00;8.90;99.90
3528;DHT22;1778;47.966;7.854;2024-01-25T06:07:02;8.90;99.90
3528;DHT22;1778;47.966;7.854;2024-01-25T06:08:04;8.90;99.90
3528;DHT22;1778;47.966;7.854;2024-01-25T06:09:06;8.90;99.90
3528;DHT22;1778;47.966;7.854;2024-01-25T06:10:14;9.00;99.90
3528;DHT22;1778;47.966;7.854;2024-01-25T06:11:15;9.00;99.90
3528;DHT22;1778;47.966;7.854;2024-01-25T06:12:17;8.90;99.90
3528;DHT22;1778;47.966;7.854;2024-01-25T06:13:18;8.90;99.90
3528;DHT22;1778;47.966;7.854;2024-01-25T06:14:20;8.90;99.90
3528;DHT22;1778;47.966;7.854;2024-01-25T06:15:22;8.90;99.90
3528;DHT22;1778;47.966;7.854;2024-01-25T06:16:23;8.90;99.90
3528;DHT22;1778;47.966;7.854;2024-01-25T06:17:25;8.90;99.90
3528;DHT22;1778;47.966;7.854;2024-01-25T06:18:26;9.00;99.90
3528;DHT22;1778;47.966;7.854;2024-01-25T06:19:28;9.00;99.90
3528;DHT22;1778;47.966;7.854;2024-01-25T06:20:30;8.90;99.90
3528;DHT22;1778;47.966;7.854;2024-01-25T06:21:32;8.90;99.90
3528;DHT22;1778;47.966;7.854;2024-01-25T06:22:35;8.90;99.90
3528;DHT22;1778;47.966;7.854;2024-01-25T06:23:37;9.00;99.90
3528;DHT22;1778;47.966;7.854;2024-01-25T06:24:39;9.00;99.90
3528;DHT22;1778;47.966;7.854;2024-01-25T06:25:40;8.90;99.90
3528;DHT22;1778;47.966;7.854;2024-01-25T06:26:42;8.90;99.90
3528;DHT22;1778;47.966;7.854;2024-01-25T06:27:43;8.90;99.90
3528;DHT22;1778;47.966;7.854;2024-01-25T06:28:45;8.90;99.90
3528;DHT22;1778;47.966;7.854;2024-01-25T06:29:46;8.90;99.90
3528;DHT22;1778;47.966;7.854;2024-01-25T06:30:48;8.90;99.90
3528;DHT22;1778;47.966;7.854;2024-01-25T06:31:50;8.90;99.90
3528;DHT22;1778;47.966;7.854;2024-01-25T06:32:52;8.90;99.90
3528;DHT22;1778;47.966;7.854;2024-01-25T06:33:53;8.90;99.90
3528;DHT22;1778;47.966;7.854;2024-01-25T06:34:55;8.90;99.90
3528;DHT22;1778;47.966;7.854;2024-01-25T06:35:57;8.90;99.90
3528;DHT22;1778;47.966;7.854;2024-01-25T06:36:58;8.90;99.90
3528;DHT22;1778;47.966;7.854;2024-01-25T06:38:00;8.90;99.90
3528;DHT22;1778;47.966;7.854;2024-01-25T06:39:02;8.90;99.90
3528;DHT22;1778;47.966;7.854;2024-01-25T06:40:06;8.90;99.90
3528;DHT22;1778;47.966;7.854;2024-01-25T06:41:09;8.90;99.90
3528;DHT22;1778;47.966;7.854;2024-01-25T06:42:10;8.90;99.90
3528;DHT22;1778;47.966;7.854;2024-01-25T06:43:11;8.90;99.90
3528;DHT22;1778;47.966;7.854;2024-01-25T06:44:14;8.90;99.90
3528;DHT22;1778;47.966;7.854;2024-01-25T06:45:15;8.90;99.90
3528;DHT22;1778;47.966;7.854;2024-01-25T06:46:17;8.90;99.90
3528;DHT22;1778;47.966;7.854;2024-01-25T06:47:18;8.80;99.90
3528;DHT22;1778;47.966;7.854;2024-01-25T06:48:23;8.80;99.90
3528;DHT22;1778;47.966;7.854;2024-01-25T06:49:25;8.90;99.90
3528;DHT22;1778;47.966;7.854;2024-01-25T06:50:26;8.80;99.90
3528;DHT22;1778;47.966;7.854;2024-01-25T06:51:28;8.80;99.90